createdAt,value
2023-03-06T05:12:29.552Z,81.60
2023-03-06T05:15:33.067Z,83.16
2023-03-06T05:18:36.890Z,82.80
2023-03-06T05:21:39.729Z,82.18
2023-03-06T05:24:42.308Z,84.03
2023-03-06T05:27:45.146Z,85.51
2023-03-06T05:30:48.078Z,85.22
2023-03-06T05:33:51.068Z,85.18
2023-03-06T05:36:53.590Z,87.20
2023-03-06T05:39:56.718Z,86.87
2023-03-06T05:42:59.534Z,87.98
2023-03-06T05:46:06.798Z,88.86
2023-03-06T05:49:09.494Z,90.22
2023-03-06T05:52:13.300Z,90.25
2023-03-06T05:55:16.595Z,93.61
2023-03-06T05:58:22.832Z,93.93
2023-03-06T06:01:28.582Z,94.05
2023-03-06T06:04:31.532Z,94.27
2023-03-06T06:07:34.208Z,95.14
2023-03-06T06:10:38.799Z,95.30
2023-03-06T06:13:41.717Z,95.28
2023-03-06T06:16:44.855Z,96.24
2023-03-06T06:19:47.437Z,97.19
2023-03-06T06:22:50.512Z,97.21
2023-03-06T06:25:53.071Z,97.98
2023-03-06T06:28:55.877Z,98.68
2023-03-06T06:31:59.857Z,100.00
2023-03-06T06:35:02.938Z,99.33
2023-03-06T06:38:05.462Z,99.07
2023-03-06T06:44:30.886Z,98.81
2023-03-06T06:47:34.424Z,98.84
2023-03-06T06:50:38.185Z,98.71
2023-03-06T06:53:41.114Z,100.00
2023-03-06T06:56:43.688Z,99.10
2023-03-06T06:59:46.585Z,99.95
2023-03-06T07:02:51.239Z,100.00
2023-03-06T07:05:55.732Z,100.00
2023-03-06T07:08:58.318Z,100.00
2023-03-06T07:12:08.244Z,100.00
2023-03-06T07:15:14.169Z,100.00
2023-03-06T07:18:17.608Z,99.02
2023-03-06T07:21:20.304Z,99.35
2023-03-06T07:24:24.605Z,98.83
2023-03-06T07:27:27.289Z,99.23
2023-03-06T07:30:33.399Z,97.65
2023-03-06T07:33:36.150Z,98.71
2023-03-06T07:36:40.440Z,98.91
2023-03-06T07:39:43.171Z,100.00
2023-03-06T07:42:46.452Z,100.00
2023-03-06T07:45:56.303Z,100.00
2023-03-06T07:48:59.313Z,100.00
2023-03-06T07:52:02.253Z,100.00
2023-03-06T07:55:05.559Z,100.00
2023-03-06T07:58:08.199Z,96.45
2023-03-06T08:01:14.437Z,96.44
2023-03-06T08:04:17.428Z,94.86
2023-03-06T08:07:20.391Z,94.76
2023-03-06T08:10:23.407Z,97.76
2023-03-06T08:13:26.041Z,99.62
2023-03-06T08:16:30.472Z,97.19
2023-03-06T08:19:33.225Z,96.57
2023-03-06T08:22:37.103Z,97.91
2023-03-06T08:25:39.690Z,99.22
2023-03-06T08:28:43.117Z,100.00
2023-03-06T08:31:47.601Z,99.68
2023-03-06T08:34:51.177Z,100.00
2023-03-06T08:37:53.726Z,97.36
2023-03-06T08:40:56.665Z,96.67
2023-03-06T08:43:59.178Z,93.40
2023-03-06T08:47:02.702Z,94.42
2023-03-06T08:50:05.734Z,96.19
2023-03-06T08:53:08.737Z,98.84
2023-03-06T08:56:19.529Z,95.40
2023-03-06T08:59:22.485Z,94.02
2023-03-06T09:02:25.187Z,91.75
2023-03-06T09:05:29.418Z,93.80
2023-03-06T09:08:32.384Z,94.21
2023-03-06T09:11:35.918Z,92.58
2023-03-06T09:14:38.576Z,93.46
2023-03-06T09:17:41.435Z,91.04
2023-03-06T09:20:43.968Z,88.83
2023-03-06T09:23:46.857Z,84.65
2023-03-06T09:26:51.587Z,84.36
2023-03-06T09:29:55.907Z,83.80
2023-03-06T09:32:58.479Z,85.45
2023-03-06T09:36:02.688Z,84.69
2023-03-06T09:39:05.465Z,76.24
2023-03-06T09:42:15.139Z,76.93
2023-03-06T09:45:20.477Z,74.43
2023-03-06T09:48:41.352Z,72.32
2023-03-06T09:52:29.038Z,72.68
2023-03-06T09:55:40.329Z,72.75
2023-03-06T09:58:51.375Z,73.83
2023-03-06T10:01:58.961Z,71.54
2023-03-06T10:05:06.724Z,68.63
2023-03-06T10:08:23.890Z,66.84
2023-03-06T10:11:42.584Z,66.83
2023-03-06T10:14:52.993Z,69.26
2023-03-06T10:17:56.671Z,68.66
2023-03-06T10:21:18.466Z,70.44
2023-03-06T10:24:47.067Z,73.98
2023-03-06T10:27:55.761Z,68.58
2023-03-06T10:31:09.354Z,66.92
2023-03-06T10:34:14.629Z,67.24
2023-03-06T10:37:22.653Z,69.32
2023-03-06T10:40:35.332Z,73.32
2023-03-06T10:43:43.445Z,72.97
2023-03-06T10:46:49.334Z,72.45
2023-03-06T10:50:00.850Z,71.40
2023-03-06T10:53:06.382Z,73.02
2023-03-06T10:56:09.822Z,72.91
2023-03-06T10:59:19.191Z,73.79
2023-03-06T11:02:30.205Z,75.43
2023-03-06T11:05:32.942Z,75.29
2023-03-06T11:08:36.591Z,75.30
2023-03-06T11:11:39.268Z,73.52
2023-03-06T11:14:43.144Z,75.13
2023-03-06T11:18:05.927Z,74.39
2023-03-06T11:21:31.751Z,75.22
2023-03-06T11:24:39.402Z,76.87
2023-03-06T11:27:46.322Z,79.39
2023-03-06T11:30:54.566Z,79.03
2023-03-06T11:34:28.676Z,78.75
2023-03-06T11:37:46.623Z,77.09
2023-03-06T11:40:54.654Z,76.75
2023-03-06T11:44:12.088Z,75.73
2023-03-06T11:47:19.811Z,74.53
2023-03-06T11:50:33.591Z,76.72
2023-03-06T11:53:39.475Z,76.21
2023-03-06T11:57:11.477Z,75.32
2023-03-06T12:00:29.629Z,75.42
2023-03-06T12:03:58.755Z,76.58
2023-03-06T12:07:21.727Z,77.82
2023-03-06T12:10:41.176Z,77.83
2023-03-06T12:17:24.956Z,75.40
2023-03-06T12:20:46.674Z,74.36
2023-03-06T12:24:03.910Z,74.82
2023-03-06T12:27:27.368Z,75.98
2023-03-06T12:31:09.271Z,74.39
2023-03-06T12:34:36.399Z,75.82
2023-03-06T12:38:07.673Z,76.07
2023-03-06T12:41:44.481Z,80.20
2023-03-06T12:45:03.020Z,82.37
2023-03-06T12:48:18.629Z,83.07
2023-03-06T12:51:22.077Z,81.76
2023-03-06T12:54:28.690Z,82.07
2023-03-06T12:57:31.631Z,83.36
2023-03-06T13:00:34.312Z,84.88
2023-03-06T13:03:52.306Z,86.09
2023-03-06T13:06:57.916Z,85.91
2023-03-06T13:10:16.297Z,86.08
2023-03-06T13:13:29.578Z,86.55
2023-03-06T13:16:34.620Z,85.71
2023-03-06T13:19:37.661Z,85.16
2023-03-06T13:22:42.991Z,87.50
2023-03-06T13:25:49.068Z,85.54
2023-03-06T13:28:55.010Z,86.76
2023-03-06T13:32:00.520Z,87.24
2023-03-06T13:35:46.221Z,87.53
2023-03-06T13:38:48.713Z,87.11
2023-03-06T13:42:03.062Z,88.96
2023-03-06T13:45:23.885Z,89.87
2023-03-06T13:48:47.637Z,89.85
2023-03-06T13:51:53.240Z,89.05
2023-03-06T13:55:03.226Z,87.81
2023-03-06T13:58:56.921Z,87.31
2023-03-06T14:02:24.761Z,87.24
2023-03-06T14:05:49.418Z,88.20
2023-03-06T14:08:52.275Z,88.21
2023-03-06T14:12:19.062Z,90.22
2023-03-06T14:15:40.092Z,89.23
2023-03-06T14:18:48.519Z,89.88
2023-03-06T14:21:57.849Z,90.40
2023-03-06T14:25:05.620Z,90.67
2023-03-06T14:28:30.435Z,88.40
2023-03-06T14:31:41.140Z,90.78
2023-03-06T14:34:46.750Z,92.54
2023-03-06T14:37:53.282Z,92.32
2023-03-06T14:40:56.258Z,92.25
2023-03-06T14:44:19.732Z,93.71
2023-03-06T14:47:26.471Z,95.59
2023-03-06T14:50:33.237Z,95.94
2023-03-06T14:53:35.783Z,96.29
2023-03-06T14:56:46.012Z,95.68
2023-03-06T14:59:56.462Z,95.52
2023-03-06T15:02:59.869Z,96.04
2023-03-06T15:06:04.734Z,95.68
2023-03-06T15:09:16.231Z,95.29
2023-03-06T15:12:19.833Z,94.75
2023-03-06T15:15:29.967Z,96.63
2023-03-06T15:18:39.171Z,96.55
2023-03-06T15:21:47.780Z,98.12
2023-03-06T15:24:50.648Z,97.71
2023-03-06T15:28:02.077Z,98.32
2023-03-06T15:31:10.728Z,98.13
2023-03-06T15:34:17.323Z,98.66
2023-03-06T15:37:27.613Z,99.57
2023-03-06T15:40:31.938Z,98.52
2023-03-06T15:43:40.887Z,99.86
2023-03-06T15:46:43.767Z,99.52
2023-03-06T15:49:46.608Z,100.00
2023-03-06T15:52:50.239Z,100.00
2023-03-06T15:55:55.543Z,100.00
2023-03-06T15:58:59.814Z,100.00
2023-03-06T16:02:11.022Z,100.00
2023-03-06T16:05:17.594Z,100.00
2023-03-06T16:08:20.067Z,100.00
2023-03-06T16:11:35.325Z,100.00
2023-03-06T16:14:47.435Z,100.00
2023-03-06T16:17:50.253Z,100.00
2023-03-06T16:20:53.006Z,100.00
2023-03-06T16:23:55.928Z,100.00
2023-03-06T16:27:01.521Z,100.00
2023-03-06T16:30:05.292Z,100.00
2023-03-06T16:33:11.273Z,100.00
2023-03-06T16:36:19.638Z,100.00
2023-03-06T16:39:24.461Z,100.00
